sensor_id;sensor_type;location;lat;lon;timestamp;P1;durP1;ratioP1;P2;durP2;ratioP2
35056;SDS011;21241;51.828;19.574;2023-08-20T00:00:42;20.20;;;18.90;;
35056;SDS011;21241;51.828;19.574;2023-08-20T00:03:30;20.00;;;18.80;;
35056;SDS011;21241;51.828;19.574;2023-08-20T00:05:58;21.00;;;19.60;;
35056;SDS011;21241;51.828;19.574;2023-08-20T00:08:26;20.30;;;19.10;;
35056;SDS011;21241;51.828;19.574;2023-08-20T00:10:54;21.40;;;20.00;;
35056;SDS011;21241;51.828;19.574;2023-08-20T00:13:22;21.20;;;19.80;;
35056;SDS011;21241;51.828;19.574;2023-08-20T00:15:50;20.30;;;19.10;;
35056;SDS011;21241;51.828;19.574;2023-08-20T00:18:18;20.70;;;19.40;;
35056;SDS011;21241;51.828;19.574;2023-08-20T00:20:46;22.10;;;20.80;;
35056;SDS011;21241;51.828;19.574;2023-08-20T00:23:14;22.00;;;20.60;;
35056;SDS011;21241;51.828;19.574;2023-08-20T00:25:43;20.90;;;19.70;;
35056;SDS011;21241;51.828;19.574;2023-08-20T00:28:11;21.50;;;20.10;;
35056;SDS011;21241;51.828;19.574;2023-08-20T00:30:39;20.80;;;19.50;;
35056;SDS011;21241;51.828;19.574;2023-08-20T00:33:07;20.70;;;19.50;;
35056;SDS011;21241;51.828;19.574;2023-08-20T00:35:34;23.30;;;21.90;;
35056;SDS011;21241;51.828;19.574;2023-08-20T00:38:02;24.40;;;22.80;;
35056;SDS011;21241;51.828;19.574;2023-08-20T00:40:30;24.70;;;23.20;;
35056;SDS011;21241;51.828;19.574;2023-08-20T00:42:58;24.20;;;22.60;;
35056;SDS011;21241;51.828;19.574;2023-08-20T00:45:26;23.10;;;21.60;;
35056;SDS011;21241;51.828;19.574;2023-08-20T00:47:54;23.20;;;21.50;;
35056;SDS011;21241;51.828;19.574;2023-08-20T00:50:22;21.70;;;20.40;;
35056;SDS011;21241;51.828;19.574;2023-08-20T00:52:50;21.90;;;20.40;;
35056;SDS011;21241;51.828;19.574;2023-08-20T00:55:18;21.00;;;19.60;;
35056;SDS011;21241;51.828;19.574;2023-08-20T00:57:46;20.90;;;19.40;;
35056;SDS011;21241;51.828;19.574;2023-08-20T01:00:13;21.40;;;20.00;;
35056;SDS011;21241;51.828;19.574;2023-08-20T01:02:43;21.20;;;19.90;;
35056;SDS011;21241;51.828;19.574;2023-08-20T01:05:15;21.40;;;20.00;;
35056;SDS011;21241;51.828;19.574;2023-08-20T01:11:03;20.80;;;19.60;;
35056;SDS011;21241;51.828;19.574;2023-08-20T01:13:36;20.90;;;19.60;;
35056;SDS011;21241;51.828;19.574;2023-08-20T01:16:03;20.60;;;19.20;;
35056;SDS011;21241;51.828;19.574;2023-08-20T01:18:32;20.80;;;19.40;;
35056;SDS011;21241;51.828;19.574;2023-08-20T01:21:01;21.00;;;19.80;;
35056;SDS011;21241;51.828;19.574;2023-08-20T01:23:50;20.20;;;18.90;;
35056;SDS011;21241;51.828;19.574;2023-08-20T01:29:00;22.50;;;20.80;;
35056;SDS011;21241;51.828;19.574;2023-08-20T01:31:28;19.60;;;18.40;;
35056;SDS011;21241;51.828;19.574;2023-08-20T01:33:56;20.00;;;18.80;;
35056;SDS011;21241;51.828;19.574;2023-08-20T01:36:25;19.70;;;18.50;;
35056;SDS011;21241;51.828;19.574;2023-08-20T01:38:53;20.60;;;19.30;;
35056;SDS011;21241;51.828;19.574;2023-08-20T01:41:21;20.00;;;18.80;;
35056;SDS011;21241;51.828;19.574;2023-08-20T01:43:49;19.80;;;18.60;;
35056;SDS011;21241;51.828;19.574;2023-08-20T01:46:16;20.10;;;18.90;;
35056;SDS011;21241;51.828;19.574;2023-08-20T01:48:44;20.20;;;18.70;;
35056;SDS011;21241;51.828;19.574;2023-08-20T01:51:12;20.20;;;18.90;;
35056;SDS011;21241;51.828;19.574;2023-08-20T01:53:40;19.60;;;18.40;;
35056;SDS011;21241;51.828;19.574;2023-08-20T01:56:11;19.30;;;18.10;;
35056;SDS011;21241;51.828;19.574;2023-08-20T01:58:40;19.40;;;18.10;;
35056;SDS011;21241;51.828;19.574;2023-08-20T02:01:08;20.30;;;19.00;;
35056;SDS011;21241;51.828;19.574;2023-08-20T02:03:36;19.60;;;18.40;;
35056;SDS011;21241;51.828;19.574;2023-08-20T02:06:05;18.90;;;17.70;;
35056;SDS011;21241;51.828;19.574;2023-08-20T02:08:33;20.20;;;18.90;;
35056;SDS011;21241;51.828;19.574;2023-08-20T02:11:02;20.70;;;19.40;;
35056;SDS011;21241;51.828;19.574;2023-08-20T02:13:30;20.30;;;19.00;;
35056;SDS011;21241;51.828;19.574;2023-08-20T02:16:02;20.10;;;18.80;;
35056;SDS011;21241;51.828;19.574;2023-08-20T02:18:33;21.10;;;19.80;;
35056;SDS011;21241;51.828;19.574;2023-08-20T02:21:01;20.10;;;18.80;;
35056;SDS011;21241;51.828;19.574;2023-08-20T02:23:30;20.90;;;19.60;;
35056;SDS011;21241;51.828;19.574;2023-08-20T02:25:57;21.70;;;20.30;;
35056;SDS011;21241;51.828;19.574;2023-08-20T02:28:25;21.00;;;19.80;;
35056;SDS011;21241;51.828;19.574;2023-08-20T02:30:54;21.40;;;20.10;;
35056;SDS011;21241;51.828;19.574;2023-08-20T02:33:21;21.10;;;19.70;;
35056;SDS011;21241;51.828;19.574;2023-08-20T02:35:49;22.20;;;20.70;;
35056;SDS011;21241;51.828;19.574;2023-08-20T02:38:17;20.80;;;19.40;;
35056;SDS011;21241;51.828;19.574;2023-08-20T02:40:45;21.70;;;20.30;;
35056;SDS011;21241;51.828;19.574;2023-08-20T02:43:13;21.70;;;20.30;;
35056;SDS011;21241;51.828;19.574;2023-08-20T02:45:41;22.00;;;20.50;;
35056;SDS011;21241;51.828;19.574;2023-08-20T02:48:10;20.90;;;19.50;;
35056;SDS011;21241;51.828;19.574;2023-08-20T02:50:38;20.50;;;19.20;;
35056;SDS011;21241;51.828;19.574;2023-08-20T02:53:06;21.20;;;19.90;;
35056;SDS011;21241;51.828;19.574;2023-08-20T02:55:34;22.40;;;20.90;;
35056;SDS011;21241;51.828;19.574;2023-08-20T02:58:03;22.10;;;20.70;;
35056;SDS011;21241;51.828;19.574;2023-08-20T03:00:31;22.40;;;20.90;;
35056;SDS011;21241;51.828;19.574;2023-08-20T03:02:59;22.10;;;20.70;;
35056;SDS011;21241;51.828;19.574;2023-08-20T03:05:29;22.40;;;20.90;;
35056;SDS011;21241;51.828;19.574;2023-08-20T03:07:56;22.60;;;21.20;;
35056;SDS011;21241;51.828;19.574;2023-08-20T03:10:25;22.00;;;20.50;;
35056;SDS011;21241;51.828;19.574;2023-08-20T03:12:54;23.60;;;21.80;;
35056;SDS011;21241;51.828;19.574;2023-08-20T03:15:22;21.70;;;20.40;;
35056;SDS011;21241;51.828;19.574;2023-08-20T03:17:50;22.50;;;21.10;;
35056;SDS011;21241;51.828;19.574;2023-08-20T03:20:17;22.00;;;20.60;;
35056;SDS011;21241;51.828;19.574;2023-08-20T03:22:45;22.70;;;21.20;;
35056;SDS011;21241;51.828;19.574;2023-08-20T03:25:13;22.20;;;20.80;;
35056;SDS011;21241;51.828;19.574;2023-08-20T03:27:41;22.00;;;20.70;;
35056;SDS011;21241;51.828;19.574;2023-08-20T03:30:09;21.60;;;20.30;;
35056;SDS011;21241;51.828;19.574;2023-08-20T03:32:38;22.20;;;20.70;;
35056;SDS011;21241;51.828;19.574;2023-08-20T03:35:08;21.60;;;20.20;;
35056;SDS011;21241;51.828;19.574;2023-08-20T03:37:37;22.20;;;20.70;;
35056;SDS011;21241;51.828;19.574;2023-08-20T03:40:05;22.90;;;21.40;;
35056;SDS011;21241;51.828;19.574;2023-08-20T03:42:33;22.20;;;20.70;;
35056;SDS011;21241;51.828;19.574;2023-08-20T03:45:01;22.00;;;20.60;;
35056;SDS011;21241;51.828;19.574;2023-08-20T03:47:29;23.10;;;21.50;;
35056;SDS011;21241;51.828;19.574;2023-08-20T03:49:57;22.80;;;21.30;;
35056;SDS011;21241;51.828;19.574;2023-08-20T03:52:25;23.10;;;21.70;;
35056;SDS011;21241;51.828;19.574;2023-08-20T03:54:52;23.80;;;22.30;;
35056;SDS011;21241;51.828;19.574;2023-08-20T03:57:20;24.30;;;22.80;;
35056;SDS011;21241;51.828;19.574;2023-08-20T03:59:48;24.20;;;22.60;;
35056;SDS011;21241;51.828;19.574;2023-08-20T04:02:16;24.80;;;23.20;;
35056;SDS011;21241;51.828;19.574;2023-08-20T04:04:44;25.10;;;23.60;;
35056;SDS011;21241;51.828;19.574;2023-08-20T04:07:13;24.80;;;23.20;;
35056;SDS011;21241;51.828;19.574;2023-08-20T04:09:40;26.80;;;25.10;;
35056;SDS011;21241;51.828;19.574;2023-08-20T04:12:10;26.00;;;24.20;;
35056;SDS011;21241;51.828;19.574;2023-08-20T04:14:37;25.20;;;23.50;;
35056;SDS011;21241;51.828;19.574;2023-08-20T04:17:05;25.80;;;24.10;;
35056;SDS011;21241;51.828;19.574;2023-08-20T04:19:33;24.50;;;22.90;;
35056;SDS011;21241;51.828;19.574;2023-08-20T04:22:01;25.10;;;23.50;;
35056;SDS011;21241;51.828;19.574;2023-08-20T04:24:29;25.60;;;24.00;;
35056;SDS011;21241;51.828;19.574;2023-08-20T04:26:56;24.80;;;23.30;;
35056;SDS011;21241;51.828;19.574;2023-08-20T04:29:26;26.10;;;24.40;;
35056;SDS011;21241;51.828;19.574;2023-08-20T04:31:55;27.50;;;25.60;;
35056;SDS011;21241;51.828;19.574;2023-08-20T04:34:23;26.90;;;25.20;;
35056;SDS011;21241;51.828;19.574;2023-08-20T04:36:52;25.60;;;24.00;;
35056;SDS011;21241;51.828;19.574;2023-08-20T04:39:20;26.20;;;24.40;;
35056;SDS011;21241;51.828;19.574;2023-08-20T04:41:50;26.20;;;24.40;;
35056;SDS011;21241;51.828;19.574;2023-08-20T04:44:19;27.90;;;26.10;;
35056;SDS011;21241;51.828;19.574;2023-08-20T04:46:47;26.70;;;24.90;;
35056;SDS011;21241;51.828;19.574;2023-08-20T04:49:15;26.30;;;24.60;;
35056;SDS011;21241;51.828;19.574;2023-08-20T04:51:43;27.20;;;25.20;;
35056;SDS011;21241;51.828;19.574;2023-08-20T04:54:11;25.70;;;23.90;;
35056;SDS011;21241;51.828;19.574;2023-08-20T04:56:38;27.50;;;25.70;;
35056;SDS011;21241;51.828;19.574;2023-08-20T04:59:06;27.00;;;25.30;;
35056;SDS011;21241;51.828;19.574;2023-08-20T05:01:53;31.50;;;29.40;;
35056;SDS011;21241;51.828;19.574;2023-08-20T05:04:34;30.90;;;29.00;;
35056;SDS011;21241;51.828;19.574;2023-08-20T05:07:02;31.70;;;29.50;;
35056;SDS011;21241;51.828;19.574;2023-08-20T05:09:31;30.70;;;28.60;;
35056;SDS011;21241;51.828;19.574;2023-08-20T05:11:59;30.00;;;28.00;;
35056;SDS011;21241;51.828;19.574;2023-08-20T05:14:29;28.90;;;27.10;;
35056;SDS011;21241;51.828;19.574;2023-08-20T05:16:57;29.80;;;27.90;;
35056;SDS011;21241;51.828;19.574;2023-08-20T05:19:25;29.20;;;27.20;;
35056;SDS011;21241;51.828;19.574;2023-08-20T05:21:53;28.10;;;26.40;;
35056;SDS011;21241;51.828;19.574;2023-08-20T05:24:24;27.10;;;25.20;;
35056;SDS011;21241;51.828;19.574;2023-08-20T05:29:47;26.60;;;24.80;;
35056;SDS011;21241;51.828;19.574;2023-08-20T05:32:17;26.00;;;24.40;;
35056;SDS011;21241;51.828;19.574;2023-08-20T05:34:45;25.40;;;23.70;;
35056;SDS011;21241;51.828;19.574;2023-08-20T05:37:12;24.90;;;23.30;;
35056;SDS011;21241;51.828;19.574;2023-08-20T05:39:41;24.50;;;22.80;;
35056;SDS011;21241;51.828;19.574;2023-08-20T05:42:10;24.50;;;22.70;;
35056;SDS011;21241;51.828;19.574;2023-08-20T05:44:42;25.60;;;24.10;;
35056;SDS011;21241;51.828;19.574;2023-08-20T05:47:12;23.70;;;22.20;;
35056;SDS011;21241;51.828;19.574;2023-08-20T05:49:40;25.80;;;24.20;;
35056;SDS011;21241;51.828;19.574;2023-08-20T05:52:08;25.70;;;24.10;;
35056;SDS011;21241;51.828;19.574;2023-08-20T05:54:37;27.60;;;25.90;;
35056;SDS011;21241;51.828;19.574;2023-08-20T05:57:05;27.60;;;25.80;;
35056;SDS011;21241;51.828;19.574;2023-08-20T05:59:32;27.20;;;25.30;;
35056;SDS011;21241;51.828;19.574;2023-08-20T06:02:01;27.10;;;25.40;;
35056;SDS011;21241;51.828;19.574;2023-08-20T06:04:30;26.90;;;25.10;;
35056;SDS011;21241;51.828;19.574;2023-08-20T06:06:58;27.80;;;26.00;;
35056;SDS011;21241;51.828;19.574;2023-08-20T06:09:26;26.80;;;25.10;;
35056;SDS011;21241;51.828;19.574;2023-08-20T06:11:54;26.50;;;24.90;;
35056;SDS011;21241;51.828;19.574;2023-08-20T06:14:21;28.30;;;26.40;;
35056;SDS011;21241;51.828;19.574;2023-08-20T06:16:49;28.10;;;26.30;;
35056;SDS011;21241;51.828;19.574;2023-08-20T06:19:17;26.50;;;24.90;;
35056;SDS011;21241;51.828;19.574;2023-08-20T06:21:45;26.50;;;24.90;;
35056;SDS011;21241;51.828;19.574;2023-08-20T06:24:12;27.00;;;25.30;;
35056;SDS011;21241;51.828;19.574;2023-08-20T06:26:40;25.80;;;24.20;;
35056;SDS011;21241;51.828;19.574;2023-08-20T06:29:08;27.10;;;25.40;;
35056;SDS011;21241;51.828;19.574;2023-08-20T06:31:35;26.10;;;24.50;;
35056;SDS011;21241;51.828;19.574;2023-08-20T06:34:03;26.90;;;25.30;;
35056;SDS011;21241;51.828;19.574;2023-08-20T06:36:31;26.50;;;24.80;;
35056;SDS011;21241;51.828;19.574;2023-08-20T06:38:59;26.10;;;24.50;;
35056;SDS011;21241;51.828;19.574;2023-08-20T06:41:27;26.50;;;24.80;;
35056;SDS011;21241;51.828;19.574;2023-08-20T06:43:55;27.10;;;25.30;;
35056;SDS011;21241;51.828;19.574;2023-08-20T06:46:23;25.60;;;24.00;;
35056;SDS011;21241;51.828;19.574;2023-08-20T06:48:51;26.70;;;25.00;;
35056;SDS011;21241;51.828;19.574;2023-08-20T06:51:19;25.80;;;24.30;;
35056;SDS011;21241;51.828;19.574;2023-08-20T06:53:49;26.80;;;25.00;;
35056;SDS011;21241;51.828;19.574;2023-08-20T06:56:16;26.50;;;24.80;;
35056;SDS011;21241;51.828;19.574;2023-08-20T06:58:44;26.70;;;25.00;;
35056;SDS011;21241;51.828;19.574;2023-08-20T07:01:12;26.20;;;24.50;;
35056;SDS011;21241;51.828;19.574;2023-08-20T07:03:41;25.90;;;24.20;;
35056;SDS011;21241;51.828;19.574;2023-08-20T07:06:09;24.40;;;22.60;;
35056;SDS011;21241;51.828;19.574;2023-08-20T07:08:38;24.30;;;22.80;;
35056;SDS011;21241;51.828;19.574;2023-08-20T07:11:07;23.80;;;22.20;;
35056;SDS011;21241;51.828;19.574;2023-08-20T07:13:35;25.70;;;24.00;;
35056;SDS011;21241;51.828;19.574;2023-08-20T07:16:04;22.80;;;21.30;;
35056;SDS011;21241;51.828;19.574;2023-08-20T07:18:32;23.80;;;22.30;;
35056;SDS011;21241;51.828;19.574;2023-08-20T07:20:59;23.50;;;22.00;;
35056;SDS011;21241;51.828;19.574;2023-08-20T07:23:27;23.40;;;22.00;;
35056;SDS011;21241;51.828;19.574;2023-08-20T07:26:05;23.40;;;21.90;;
35056;SDS011;21241;51.828;19.574;2023-08-20T07:28:34;23.30;;;22.00;;
35056;SDS011;21241;51.828;19.574;2023-08-20T07:31:35;23.50;;;22.10;;
35056;SDS011;21241;51.828;19.574;2023-08-20T07:34:03;22.10;;;20.80;;
35056;SDS011;21241;51.828;19.574;2023-08-20T07:36:33;22.10;;;20.70;;
35056;SDS011;21241;51.828;19.574;2023-08-20T07:39:01;22.10;;;20.70;;
35056;SDS011;21241;51.828;19.574;2023-08-20T07:41:30;22.30;;;20.80;;
35056;SDS011;21241;51.828;19.574;2023-08-20T07:43:58;22.60;;;21.20;;
35056;SDS011;21241;51.828;19.574;2023-08-20T07:46:25;23.20;;;21.80;;
35056;SDS011;21241;51.828;19.574;2023-08-20T07:48:53;22.00;;;20.60;;
35056;SDS011;21241;51.828;19.574;2023-08-20T07:51:22;21.50;;;20.30;;
35056;SDS011;21241;51.828;19.574;2023-08-20T07:53:49;20.20;;;18.90;;
35056;SDS011;21241;51.828;19.574;2023-08-20T07:56:17;20.80;;;19.50;;
35056;SDS011;21241;51.828;19.574;2023-08-20T07:58:45;20.90;;;19.70;;
35056;SDS011;21241;51.828;19.574;2023-08-20T08:01:13;22.50;;;21.20;;
35056;SDS011;21241;51.828;19.574;2023-08-20T08:03:41;22.50;;;21.20;;
35056;SDS011;21241;51.828;19.574;2023-08-20T08:06:09;23.00;;;21.70;;
35056;SDS011;21241;51.828;19.574;2023-08-20T08:08:37;24.70;;;23.30;;
35056;SDS011;21241;51.828;19.574;2023-08-20T08:11:09;25.40;;;23.80;;
35056;SDS011;21241;51.828;19.574;2023-08-20T08:13:37;23.60;;;21.90;;
35056;SDS011;21241;51.828;19.574;2023-08-20T08:16:04;21.70;;;20.40;;
35056;SDS011;21241;51.828;19.574;2023-08-20T08:18:32;23.30;;;21.90;;
35056;SDS011;21241;51.828;19.574;2023-08-20T08:21:00;23.10;;;21.70;;
35056;SDS011;21241;51.828;19.574;2023-08-20T08:23:28;23.80;;;22.30;;
35056;SDS011;21241;51.828;19.574;2023-08-20T08:25:56;22.50;;;21.10;;
35056;SDS011;21241;51.828;19.574;2023-08-20T08:28:23;22.30;;;20.90;;
35056;SDS011;21241;51.828;19.574;2023-08-20T08:30:51;23.40;;;22.00;;
35056;SDS011;21241;51.828;19.574;2023-08-20T08:33:19;23.30;;;21.90;;
35056;SDS011;21241;51.828;19.574;2023-08-20T08:35:47;23.30;;;21.90;;
35056;SDS011;21241;51.828;19.574;2023-08-20T08:38:14;23.90;;;22.50;;
35056;SDS011;21241;51.828;19.574;2023-08-20T08:40:42;23.30;;;21.90;;
35056;SDS011;21241;51.828;19.574;2023-08-20T08:43:10;23.20;;;21.80;;
35056;SDS011;21241;51.828;19.574;2023-08-20T08:45:45;23.50;;;21.90;;
35056;SDS011;21241;51.828;19.574;2023-08-20T08:48:17;22.20;;;20.80;;
35056;SDS011;21241;51.828;19.574;2023-08-20T08:50:46;22.10;;;20.80;;
35056;SDS011;21241;51.828;19.574;2023-08-20T08:53:14;22.80;;;21.30;;
35056;SDS011;21241;51.828;19.574;2023-08-20T08:55:42;21.80;;;20.40;;
35056;SDS011;21241;51.828;19.574;2023-08-20T08:58:10;20.10;;;18.90;;
35056;SDS011;21241;51.828;19.574;2023-08-20T09:00:38;21.70;;;20.30;;
35056;SDS011;21241;51.828;19.574;2023-08-20T09:03:06;20.80;;;19.30;;
35056;SDS011;21241;51.828;19.574;2023-08-20T09:05:45;21.00;;;19.80;;
35056;SDS011;21241;51.828;19.574;2023-08-20T09:08:22;20.50;;;19.30;;
35056;SDS011;21241;51.828;19.574;2023-08-20T09:10:54;20.40;;;19.20;;
35056;SDS011;21241;51.828;19.574;2023-08-20T09:16:09;20.40;;;19.30;;
35056;SDS011;21241;51.828;19.574;2023-08-20T09:18:38;21.80;;;20.50;;
35056;SDS011;21241;51.828;19.574;2023-08-20T09:21:08;22.10;;;20.70;;
35056;SDS011;21241;51.828;19.574;2023-08-20T09:23:37;21.30;;;20.00;;
35056;SDS011;21241;51.828;19.574;2023-08-20T09:26:06;19.90;;;18.60;;
35056;SDS011;21241;51.828;19.574;2023-08-20T09:28:41;21.00;;;19.80;;
35056;SDS011;21241;51.828;19.574;2023-08-20T09:31:10;20.30;;;19.10;;
35056;SDS011;21241;51.828;19.574;2023-08-20T09:33:51;19.10;;;18.00;;
35056;SDS011;21241;51.828;19.574;2023-08-20T09:36:29;20.00;;;18.80;;
35056;SDS011;21241;51.828;19.574;2023-08-20T09:38:58;22.20;;;20.80;;
35056;SDS011;21241;51.828;19.574;2023-08-20T09:41:26;22.90;;;21.50;;
35056;SDS011;21241;51.828;19.574;2023-08-20T09:43:56;21.50;;;20.20;;
35056;SDS011;21241;51.828;19.574;2023-08-20T09:46:26;20.90;;;19.60;;
35056;SDS011;21241;51.828;19.574;2023-08-20T09:48:55;22.30;;;20.90;;
35056;SDS011;21241;51.828;19.574;2023-08-20T09:51:27;20.30;;;19.00;;
35056;SDS011;21241;51.828;19.574;2023-08-20T09:56:40;20.80;;;19.50;;
35056;SDS011;21241;51.828;19.574;2023-08-20T09:59:08;20.50;;;19.30;;
35056;SDS011;21241;51.828;19.574;2023-08-20T10:01:38;20.00;;;18.70;;
35056;SDS011;21241;51.828;19.574;2023-08-20T10:04:06;20.30;;;19.10;;
35056;SDS011;21241;51.828;19.574;2023-08-20T10:06:34;20.10;;;18.70;;
35056;SDS011;21241;51.828;19.574;2023-08-20T10:09:03;18.30;;;17.20;;
35056;SDS011;21241;51.828;19.574;2023-08-20T10:11:31;20.10;;;18.90;;
35056;SDS011;21241;51.828;19.574;2023-08-20T10:13:59;19.70;;;18.50;;
35056;SDS011;21241;51.828;19.574;2023-08-20T10:16:27;19.90;;;18.70;;
35056;SDS011;21241;51.828;19.574;2023-08-20T10:18:55;19.30;;;18.20;;
35056;SDS011;21241;51.828;19.574;2023-08-20T10:21:26;18.70;;;17.60;;
35056;SDS011;21241;51.828;19.574;2023-08-20T10:23:54;18.80;;;17.60;;
35056;SDS011;21241;51.828;19.574;2023-08-20T10:26:22;16.50;;;15.40;;
35056;SDS011;21241;51.828;19.574;2023-08-20T10:28:52;15.10;;;14.10;;
35056;SDS011;21241;51.828;19.574;2023-08-20T10:32:03;14.30;;;13.40;;
35056;SDS011;21241;51.828;19.574;2023-08-20T10:34:33;14.10;;;13.20;;
35056;SDS011;21241;51.828;19.574;2023-08-20T10:37:09;15.30;;;14.30;;
35056;SDS011;21241;51.828;19.574;2023-08-20T10:39:41;15.20;;;14.10;;
35056;SDS011;21241;51.828;19.574;2023-08-20T10:44:59;15.80;;;14.80;;
35056;SDS011;21241;51.828;19.574;2023-08-20T10:47:44;15.70;;;14.80;;
35056;SDS011;21241;51.828;19.574;2023-08-20T10:50:15;16.90;;;15.80;;
35056;SDS011;21241;51.828;19.574;2023-08-20T10:52:50;17.50;;;16.50;;
35056;SDS011;21241;51.828;19.574;2023-08-20T10:55:22;17.00;;;15.90;;
35056;SDS011;21241;51.828;19.574;2023-08-20T10:57:57;17.30;;;16.30;;
35056;SDS011;21241;51.828;19.574;2023-08-20T11:00:27;16.10;;;15.20;;
35056;SDS011;21241;51.828;19.574;2023-08-20T11:02:57;16.20;;;15.20;;
35056;SDS011;21241;51.828;19.574;2023-08-20T11:05:26;16.20;;;15.20;;
35056;SDS011;21241;51.828;19.574;2023-08-20T11:07:54;16.40;;;15.40;;
35056;SDS011;21241;51.828;19.574;2023-08-20T11:10:22;16.50;;;15.60;;
35056;SDS011;21241;51.828;19.574;2023-08-20T11:12:50;16.00;;;15.00;;
35056;SDS011;21241;51.828;19.574;2023-08-20T11:15:18;15.80;;;14.80;;
35056;SDS011;21241;51.828;19.574;2023-08-20T11:17:48;16.80;;;15.80;;
35056;SDS011;21241;51.828;19.574;2023-08-20T11:20:18;16.60;;;15.50;;
35056;SDS011;21241;51.828;19.574;2023-08-20T11:22:47;16.70;;;15.70;;
35056;SDS011;21241;51.828;19.574;2023-08-20T11:25:15;17.30;;;16.30;;
35056;SDS011;21241;51.828;19.574;2023-08-20T11:27:43;17.40;;;16.40;;
35056;SDS011;21241;51.828;19.574;2023-08-20T11:30:11;17.10;;;16.10;;
35056;SDS011;21241;51.828;19.574;2023-08-20T11:32:40;16.80;;;15.80;;
35056;SDS011;21241;51.828;19.574;2023-08-20T11:35:10;17.10;;;16.10;;
35056;SDS011;21241;51.828;19.574;2023-08-20T11:37:39;16.30;;;15.40;;
35056;SDS011;21241;51.828;19.574;2023-08-20T11:40:07;16.40;;;15.40;;
35056;SDS011;21241;51.828;19.574;2023-08-20T11:42:36;16.20;;;15.20;;
35056;SDS011;21241;51.828;19.574;2023-08-20T11:45:04;15.40;;;14.50;;
35056;SDS011;21241;51.828;19.574;2023-08-20T11:47:38;16.40;;;15.50;;
35056;SDS011;21241;51.828;19.574;2023-08-20T11:50:07;14.80;;;14.00;;
35056;SDS011;21241;51.828;19.574;2023-08-20T11:52:36;15.80;;;14.70;;
35056;SDS011;21241;51.828;19.574;2023-08-20T11:55:04;15.40;;;14.30;;
35056;SDS011;21241;51.828;19.574;2023-08-20T11:57:33;15.90;;;14.70;;
35056;SDS011;21241;51.828;19.574;2023-08-20T12:00:05;15.10;;;14.20;;
35056;SDS011;21241;51.828;19.574;2023-08-20T12:02:41;15.50;;;14.60;;
35056;SDS011;21241;51.828;19.574;2023-08-20T12:05:12;14.30;;;13.40;;
35056;SDS011;21241;51.828;19.574;2023-08-20T12:07:40;14.10;;;13.30;;
35056;SDS011;21241;51.828;19.574;2023-08-20T12:10:19;13.60;;;12.80;;
35056;SDS011;21241;51.828;19.574;2023-08-20T12:12:49;14.00;;;13.20;;
35056;SDS011;21241;51.828;19.574;2023-08-20T12:15:17;13.70;;;12.80;;
35056;SDS011;21241;51.828;19.574;2023-08-20T12:17:59;13.80;;;12.90;;
35056;SDS011;21241;51.828;19.574;2023-08-20T12:20:28;12.90;;;12.20;;
35056;SDS011;21241;51.828;19.574;2023-08-20T12:22:58;13.80;;;12.90;;
35056;SDS011;21241;51.828;19.574;2023-08-20T12:25:29;13.30;;;12.50;;
35056;SDS011;21241;51.828;19.574;2023-08-20T12:27:57;14.00;;;13.10;;
35056;SDS011;21241;51.828;19.574;2023-08-20T12:30:25;12.90;;;12.20;;
35056;SDS011;21241;51.828;19.574;2023-08-20T12:32:53;13.50;;;12.60;;
35056;SDS011;21241;51.828;19.574;2023-08-20T12:35:21;14.40;;;13.60;;
35056;SDS011;21241;51.828;19.574;2023-08-20T12:37:49;14.90;;;14.00;;
35056;SDS011;21241;51.828;19.574;2023-08-20T12:40:17;14.00;;;13.20;;
35056;SDS011;21241;51.828;19.574;2023-08-20T12:42:45;13.40;;;12.60;;
35056;SDS011;21241;51.828;19.574;2023-08-20T12:45:13;13.30;;;12.40;;
35056;SDS011;21241;51.828;19.574;2023-08-20T12:47:41;12.50;;;11.70;;
35056;SDS011;21241;51.828;19.574;2023-08-20T12:50:09;12.40;;;11.60;;
35056;SDS011;21241;51.828;19.574;2023-08-20T12:52:38;12.70;;;11.90;;
35056;SDS011;21241;51.828;19.574;2023-08-20T12:55:06;10.40;;;9.90;;
35056;SDS011;21241;51.828;19.574;2023-08-20T12:57:34;11.10;;;10.40;;
35056;SDS011;21241;51.828;19.574;2023-08-20T13:00:04;10.40;;;9.80;;
35056;SDS011;21241;51.828;19.574;2023-08-20T13:02:39;11.70;;;11.00;;
35056;SDS011;21241;51.828;19.574;2023-08-20T13:05:07;11.10;;;10.40;;
35056;SDS011;21241;51.828;19.574;2023-08-20T13:07:36;11.10;;;10.50;;
35056;SDS011;21241;51.828;19.574;2023-08-20T13:10:05;11.20;;;10.40;;
35056;SDS011;21241;51.828;19.574;2023-08-20T13:12:34;10.90;;;10.20;;
35056;SDS011;21241;51.828;19.574;2023-08-20T13:15:02;10.70;;;10.00;;
35056;SDS011;21241;51.828;19.574;2023-08-20T13:17:31;10.80;;;10.10;;
35056;SDS011;21241;51.828;19.574;2023-08-20T13:19:59;10.50;;;9.80;;
35056;SDS011;21241;51.828;19.574;2023-08-20T13:22:27;10.10;;;9.50;;
35056;SDS011;21241;51.828;19.574;2023-08-20T13:24:55;10.60;;;10.00;;
35056;SDS011;21241;51.828;19.574;2023-08-20T13:27:22;10.70;;;10.00;;
35056;SDS011;21241;51.828;19.574;2023-08-20T13:29:51;11.00;;;10.40;;
35056;SDS011;21241;51.828;19.574;2023-08-20T13:32:19;10.60;;;10.00;;
35056;SDS011;21241;51.828;19.574;2023-08-20T13:34:47;10.10;;;9.30;;
35056;SDS011;21241;51.828;19.574;2023-08-20T13:37:15;9.90;;;9.30;;
35056;SDS011;21241;51.828;19.574;2023-08-20T13:39:43;9.90;;;9.20;;
35056;SDS011;21241;51.828;19.574;2023-08-20T13:42:11;9.60;;;9.00;;
35056;SDS011;21241;51.828;19.574;2023-08-20T13:44:38;10.70;;;10.10;;
35056;SDS011;21241;51.828;19.574;2023-08-20T13:47:07;9.70;;;9.20;;
35056;SDS011;21241;51.828;19.574;2023-08-20T13:49:35;9.70;;;9.10;;
35056;SDS011;21241;51.828;19.574;2023-08-20T13:52:03;9.90;;;9.30;;
35056;SDS011;21241;51.828;19.574;2023-08-20T13:54:31;10.50;;;9.90;;
35056;SDS011;21241;51.828;19.574;2023-08-20T13:57:00;10.50;;;9.90;;
35056;SDS011;21241;51.828;19.574;2023-08-20T13:59:27;10.10;;;9.50;;
35056;SDS011;21241;51.828;19.574;2023-08-20T14:01:55;10.90;;;10.20;;
35056;SDS011;21241;51.828;19.574;2023-08-20T14:04:23;10.40;;;9.80;;
35056;SDS011;21241;51.828;19.574;2023-08-20T14:06:51;9.70;;;9.20;;
35056;SDS011;21241;51.828;19.574;2023-08-20T14:09:19;10.20;;;9.60;;
35056;SDS011;21241;51.828;19.574;2023-08-20T14:11:46;9.90;;;9.30;;
35056;SDS011;21241;51.828;19.574;2023-08-20T14:14:14;9.80;;;9.10;;
35056;SDS011;21241;51.828;19.574;2023-08-20T14:16:42;9.80;;;9.20;;
35056;SDS011;21241;51.828;19.574;2023-08-20T14:19:10;9.30;;;8.80;;
35056;SDS011;21241;51.828;19.574;2023-08-20T14:21:38;9.80;;;9.20;;
35056;SDS011;21241;51.828;19.574;2023-08-20T14:24:05;10.10;;;9.50;;
35056;SDS011;21241;51.828;19.574;2023-08-20T14:26:35;10.10;;;9.50;;
35056;SDS011;21241;51.828;19.574;2023-08-20T14:29:03;10.30;;;9.70;;
35056;SDS011;21241;51.828;19.574;2023-08-20T14:31:30;10.40;;;9.80;;
35056;SDS011;21241;51.828;19.574;2023-08-20T14:33:58;10.00;;;9.40;;
35056;SDS011;21241;51.828;19.574;2023-08-20T14:36:26;10.60;;;9.90;;
35056;SDS011;21241;51.828;19.574;2023-08-20T14:38:54;10.40;;;9.80;;